createdAt,value
2022-10-11T00:00:03.854Z,12.13
2022-10-11T00:01:03.769Z,12.11
2022-10-11T00:02:01.985Z,12.05
2022-10-11T00:03:02.145Z,12.04
2022-10-11T00:04:01.991Z,11.99
2022-10-11T00:05:01.995Z,11.99
2022-10-11T00:06:02.085Z,11.96
2022-10-11T00:07:02.435Z,11.89
2022-10-11T00:08:02.351Z,11.89
2022-10-11T00:09:02.154Z,11.87
2022-10-11T00:10:02.166Z,11.83
2022-10-11T00:11:02.623Z,11.77
2022-10-11T00:12:03.014Z,11.74
2022-10-11T00:13:02.551Z,11.75
2022-10-11T00:14:02.657Z,11.72
2022-10-11T00:15:02.771Z,11.75
2022-10-11T00:16:03.464Z,11.72
2022-10-11T00:17:02.663Z,11.74
2022-10-11T00:18:05.396Z,11.68
2022-10-11T00:19:02.725Z,11.61
2022-10-11T00:20:02.574Z,11.56
2022-10-11T00:21:03.007Z,11.52
2022-10-11T00:22:02.280Z,11.50
2022-10-11T00:23:02.327Z,11.47
2022-10-11T00:24:02.258Z,11.44
2022-10-11T00:25:01.914Z,11.44
2022-10-11T00:26:02.211Z,11.44
2022-10-11T00:27:02.443Z,11.41
2022-10-11T00:28:02.955Z,11.34
2022-10-11T00:29:02.727Z,11.32
2022-10-11T00:30:02.485Z,11.29
2022-10-11T00:31:03.357Z,11.28
2022-10-11T00:32:02.445Z,11.25
2022-10-11T00:33:02.824Z,11.19
2022-10-11T00:34:02.504Z,11.13
2022-10-11T00:35:03.030Z,11.13
2022-10-11T00:36:02.940Z,11.13
2022-10-11T00:37:02.206Z,11.11
2022-10-11T00:38:02.019Z,11.11
2022-10-11T00:39:02.293Z,11.09
2022-10-11T00:40:02.066Z,11.06
2022-10-11T00:41:01.720Z,11.02
2022-10-11T00:42:02.176Z,11.02
2022-10-11T00:43:02.593Z,10.94
2022-10-11T00:44:02.555Z,10.92
2022-10-11T00:45:02.525Z,10.89
2022-10-11T00:46:02.507Z,10.89
2022-10-11T00:47:02.801Z,10.91
2022-10-11T00:48:02.718Z,10.86
2022-10-11T00:49:02.322Z,10.78
2022-10-11T00:50:02.628Z,10.74
2022-10-11T00:51:03.173Z,10.76
2022-10-11T00:52:02.073Z,10.74
2022-10-11T00:53:02.494Z,10.71
2022-10-11T00:54:02.142Z,10.73
2022-10-11T00:55:02.213Z,10.70
2022-10-11T00:56:02.377Z,10.62
2022-10-11T00:57:02.338Z,10.62
2022-10-11T00:58:02.703Z,10.59
2022-10-11T00:59:02.543Z,10.56
2022-10-11T01:00:02.267Z,10.52
2022-10-11T01:01:02.789Z,10.46
2022-10-11T01:02:02.328Z,10.40
2022-10-11T01:03:02.695Z,10.34
2022-10-11T01:04:02.400Z,10.30
2022-10-11T01:05:27.712Z,10.26
2022-10-11T01:06:02.817Z,10.22
2022-10-11T01:07:02.581Z,10.22
2022-10-11T01:08:03.001Z,10.18
2022-10-11T01:09:02.998Z,10.15
2022-10-11T01:10:02.884Z,10.10
2022-10-11T01:11:02.591Z,10.06
2022-10-11T01:12:03.085Z,10.06
2022-10-11T01:13:03.139Z,10.00
2022-10-11T01:14:03.409Z,9.97
2022-10-11T01:15:03.517Z,9.99
2022-10-11T01:16:03.660Z,9.96
2022-10-11T01:17:02.696Z,9.99
2022-10-11T01:18:02.365Z,10.00
2022-10-11T01:19:02.946Z,9.97
2022-10-11T01:20:02.925Z,9.97
2022-10-11T01:21:02.267Z,9.97
2022-10-11T01:22:02.854Z,9.91
2022-10-11T01:23:03.055Z,9.88
2022-10-11T01:24:08.180Z,9.89
2022-10-11T01:25:02.818Z,9.86
2022-10-11T01:26:03.672Z,9.85
2022-10-11T01:27:03.552Z,9.81
2022-10-11T01:28:03.226Z,9.78
2022-10-11T01:29:03.190Z,9.78
2022-10-11T01:30:02.934Z,9.76
2022-10-11T01:31:03.187Z,9.78
2022-10-11T01:32:03.062Z,9.78
2022-10-11T01:33:02.625Z,9.75
2022-10-11T01:34:03.053Z,9.71
2022-10-11T01:35:03.013Z,9.64
2022-10-11T01:36:02.944Z,9.56
2022-10-11T01:37:02.951Z,9.45
2022-10-11T01:38:02.619Z,9.40
2022-10-11T01:39:03.046Z,9.40
2022-10-11T01:40:03.213Z,9.34
2022-10-11T01:41:02.752Z,9.28
2022-10-11T01:42:03.239Z,9.23
2022-10-11T01:43:03.403Z,9.24
2022-10-11T01:44:03.167Z,9.23
2022-10-11T01:45:03.028Z,9.24
2022-10-11T01:46:03.815Z,9.21
2022-10-11T01:47:02.679Z,9.18
2022-10-11T01:48:02.844Z,9.20
2022-10-11T01:49:02.969Z,9.20
2022-10-11T01:50:02.346Z,9.15
2022-10-11T01:51:02.463Z,9.13
2022-10-11T01:52:02.881Z,9.10
2022-10-11T01:53:03.245Z,9.12
2022-10-11T01:54:02.563Z,9.09
2022-10-11T01:55:09.518Z,9.09
2022-10-11T01:56:03.555Z,9.06
2022-10-11T01:57:03.168Z,9.01
2022-10-11T01:58:03.104Z,8.97
2022-10-11T01:59:03.641Z,9.02
2022-10-11T02:00:03.624Z,9.02
2022-10-11T02:01:03.602Z,9.01
2022-10-11T02:02:02.838Z,9.01
2022-10-11T02:03:02.762Z,9.01
2022-10-11T02:04:03.153Z,8.99
2022-10-11T02:05:02.960Z,8.99
2022-10-11T02:06:03.439Z,9.01
2022-10-11T02:07:02.957Z,9.01
2022-10-11T02:08:03.351Z,9.01
2022-10-11T02:09:07.794Z,9.01
2022-10-11T02:10:03.341Z,9.02
2022-10-11T02:11:02.974Z,8.99
2022-10-11T02:12:03.014Z,8.99
2022-10-11T02:13:03.318Z,8.94
2022-10-11T02:14:03.006Z,8.91
2022-10-11T02:15:03.399Z,8.93
2022-10-11T02:16:03.812Z,8.91
2022-10-11T02:17:02.870Z,8.91
2022-10-11T02:18:03.001Z,8.90
2022-10-11T02:19:02.403Z,8.94
2022-10-11T02:20:02.794Z,8.87
2022-10-11T02:21:02.695Z,8.86
2022-10-11T02:22:02.796Z,8.84
2022-10-11T02:23:02.547Z,8.87
2022-10-11T02:24:02.657Z,8.83
2022-10-11T02:25:02.638Z,8.75
2022-10-11T02:26:03.026Z,8.69
2022-10-11T02:27:02.619Z,8.68
2022-10-11T02:28:02.510Z,8.69
2022-10-11T02:29:02.571Z,8.68
2022-10-11T02:30:03.016Z,8.65
2022-10-11T02:31:03.033Z,8.66
2022-10-11T02:32:02.993Z,8.66
2022-10-11T02:33:03.223Z,8.62
2022-10-11T02:34:03.008Z,8.57
2022-10-11T02:35:02.818Z,8.53
2022-10-11T02:36:03.818Z,8.51
2022-10-11T02:37:03.619Z,8.53
2022-10-11T02:38:03.735Z,8.57
2022-10-11T02:39:03.646Z,8.55
2022-10-11T02:40:03.606Z,8.57
2022-10-11T02:41:03.394Z,8.53
2022-10-11T02:42:02.596Z,8.54
2022-10-11T02:43:02.699Z,8.51
2022-10-11T02:44:02.673Z,8.51
2022-10-11T02:45:02.426Z,8.54
2022-10-11T02:46:03.213Z,8.51
2022-10-11T02:47:02.797Z,8.53
2022-10-11T02:48:02.965Z,8.54
2022-10-11T02:49:02.652Z,8.53
2022-10-11T02:50:02.588Z,8.53
2022-10-11T02:51:03.015Z,8.51
2022-10-11T02:52:03.476Z,8.48
2022-10-11T02:53:02.975Z,8.54
2022-10-11T02:54:03.266Z,8.54
2022-10-11T02:55:03.162Z,8.55
2022-10-11T02:56:03.536Z,8.54
2022-10-11T02:57:03.581Z,8.50
2022-10-11T02:58:03.694Z,8.37
2022-10-11T02:59:03.488Z,8.35
2022-10-11T03:00:03.749Z,8.32
2022-10-11T03:01:03.126Z,8.36
2022-10-11T03:02:02.402Z,8.37
2022-10-11T03:03:02.042Z,8.36
2022-10-11T03:04:01.806Z,8.37
2022-10-11T03:05:02.081Z,8.36
2022-10-11T03:06:02.574Z,8.36
2022-10-11T03:07:02.471Z,8.36
2022-10-11T03:08:02.960Z,8.39
2022-10-11T03:09:02.551Z,8.39
2022-10-11T03:10:02.953Z,8.40
2022-10-11T03:11:02.627Z,8.37
2022-10-11T03:12:03.004Z,8.33
2022-10-11T03:13:02.908Z,8.26
2022-10-11T03:14:02.638Z,8.18
2022-10-11T03:15:03.014Z,8.14
2022-10-11T03:16:03.804Z,8.12
2022-10-11T03:17:23.770Z,8.11
2022-10-11T03:18:02.240Z,8.07
2022-10-11T03:19:02.000Z,8.08
2022-10-11T03:20:02.413Z,8.07
2022-10-11T03:21:02.095Z,8.08
2022-10-11T03:22:02.608Z,8.07
2022-10-11T03:23:02.325Z,8.08
2022-10-11T03:24:02.260Z,8.08
2022-10-11T03:25:04.462Z,8.04
2022-10-11T03:26:03.209Z,8.07
2022-10-11T03:27:02.645Z,8.08
2022-10-11T03:28:02.894Z,8.07
2022-10-11T03:29:02.734Z,8.08
2022-10-11T03:30:02.851Z,8.08
2022-10-11T03:31:02.501Z,8.00
2022-10-11T03:32:02.613Z,7.96
2022-10-11T03:33:02.250Z,7.94
2022-10-11T03:34:02.448Z,7.93
2022-10-11T03:35:02.231Z,7.87
2022-10-11T03:36:02.765Z,7.89
2022-10-11T03:37:02.863Z,7.93
2022-10-11T03:38:02.682Z,7.90
2022-10-11T03:39:02.540Z,7.92
2022-10-11T03:40:02.873Z,7.87
2022-10-11T03:41:02.440Z,7.85
2022-10-11T03:42:01.839Z,7.82
2022-10-11T03:43:01.923Z,7.81
2022-10-11T03:44:02.311Z,7.82
2022-10-11T03:45:01.958Z,7.84
2022-10-11T03:46:02.285Z,7.87
2022-10-11T03:47:02.017Z,7.90
2022-10-11T03:48:02.017Z,7.92
2022-10-11T03:49:02.430Z,7.92
2022-10-11T03:50:01.985Z,7.96
2022-10-11T03:51:02.036Z,7.99
2022-10-11T03:52:02.809Z,7.94
2022-10-11T03:53:02.417Z,7.97
2022-10-11T03:54:02.888Z,8.00
2022-10-11T03:55:02.404Z,8.02
2022-10-11T03:56:07.392Z,8.02
2022-10-11T03:57:01.792Z,8.04
2022-10-11T03:58:02.023Z,8.04
2022-10-11T03:59:01.790Z,8.07
2022-10-11T04:00:01.713Z,8.04
2022-10-11T04:01:02.239Z,8.08
2022-10-11T04:02:03.354Z,8.08
2022-10-11T04:03:03.093Z,8.11
2022-10-11T04:04:03.193Z,8.12
2022-10-11T04:05:03.600Z,8.17
2022-10-11T04:06:03.835Z,8.20
2022-10-11T04:07:03.156Z,8.21
2022-10-11T04:08:02.866Z,8.25
2022-10-11T04:09:02.559Z,8.29
2022-10-11T04:10:02.841Z,8.30
2022-10-11T04:11:02.542Z,8.26
2022-10-11T04:12:02.840Z,8.26
2022-10-11T04:13:03.008Z,8.29
2022-10-11T04:14:03.396Z,8.32
2022-10-11T04:15:02.940Z,8.37
2022-10-11T04:16:03.852Z,8.44
2022-10-11T04:17:03.198Z,8.47
2022-10-11T04:18:03.347Z,8.48
2022-10-11T04:19:03.544Z,8.51
2022-10-11T04:20:02.957Z,8.51
2022-10-11T04:21:03.304Z,8.47
2022-10-11T04:22:03.006Z,8.44
2022-10-11T04:23:02.837Z,8.42
2022-10-11T04:24:02.965Z,8.44
2022-10-11T04:25:02.638Z,8.51
2022-10-11T04:26:03.599Z,8.57
2022-10-11T04:27:03.267Z,8.60
2022-10-11T04:28:03.653Z,8.65
2022-10-11T04:29:03.364Z,8.66
2022-10-11T04:30:03.751Z,8.69
2022-10-11T04:31:03.154Z,8.73
2022-10-11T04:32:02.606Z,8.76
2022-10-11T04:33:02.476Z,8.79
2022-10-11T04:34:02.765Z,8.79
2022-10-11T04:35:04.657Z,8.78
2022-10-11T04:36:03.047Z,8.84
2022-10-11T04:37:03.087Z,8.87
2022-10-11T04:38:02.898Z,8.91
2022-10-11T04:39:02.801Z,8.96
2022-10-11T04:40:03.228Z,8.97
2022-10-11T04:41:02.759Z,8.97
2022-10-11T04:42:03.827Z,9.04
2022-10-11T04:43:03.650Z,9.12
2022-10-11T04:44:03.619Z,9.16
2022-10-11T04:45:03.360Z,9.18
2022-10-11T04:46:04.186Z,9.15
2022-10-11T04:47:03.052Z,9.20
2022-10-11T04:48:03.157Z,9.23
2022-10-11T04:49:02.907Z,9.25
2022-10-11T04:50:03.208Z,9.27
2022-10-11T04:51:02.990Z,9.27
2022-10-11T04:52:03.660Z,9.28
2022-10-11T04:53:03.516Z,9.34
2022-10-11T04:54:03.633Z,9.35
2022-10-11T04:55:03.366Z,9.40
2022-10-11T04:56:04.077Z,9.40
2022-10-11T04:57:03.404Z,9.45
2022-10-11T04:58:03.802Z,9.45
2022-10-11T04:59:03.397Z,9.50
2022-10-11T05:00:03.774Z,9.52
2022-10-11T05:01:03.177Z,9.53
2022-10-11T05:02:02.645Z,9.52
2022-10-11T05:03:02.644Z,9.53
2022-10-11T05:04:02.642Z,9.57
2022-10-11T05:05:03.074Z,9.61
2022-10-11T05:06:05.644Z,9.63
2022-10-11T05:07:03.165Z,9.66
2022-10-11T05:08:03.237Z,9.67
2022-10-11T05:09:03.060Z,9.68
2022-10-11T05:10:02.895Z,9.67
2022-10-11T05:11:03.310Z,9.68
2022-10-11T05:12:03.001Z,9.70
2022-10-11T05:13:02.755Z,9.75
2022-10-11T05:14:02.913Z,9.76
2022-10-11T05:15:02.950Z,9.79
2022-10-11T05:16:05.879Z,9.81
2022-10-11T05:17:02.578Z,9.79
2022-10-11T05:18:02.962Z,9.82
2022-10-11T05:19:02.606Z,9.85
2022-10-11T05:20:02.804Z,9.83
2022-10-11T05:21:02.490Z,9.88
2022-10-11T05:22:02.864Z,9.93
2022-10-11T05:23:02.661Z,9.94
2022-10-11T05:24:02.847Z,9.93
2022-10-11T05:25:02.969Z,9.94
2022-10-11T05:26:03.324Z,9.94
2022-10-11T05:27:03.618Z,9.96
2022-10-11T05:28:02.626Z,9.96
2022-10-11T05:29:02.870Z,9.97
2022-10-11T05:30:02.954Z,9.93
2022-10-11T05:31:02.615Z,9.97
2022-10-11T05:32:03.202Z,9.99
2022-10-11T05:33:03.617Z,10.01
2022-10-11T05:34:03.650Z,9.97
2022-10-11T05:35:03.260Z,10.00
2022-10-11T05:36:03.425Z,9.99
2022-10-11T05:37:03.714Z,10.01
2022-10-11T05:38:03.296Z,10.03
2022-10-11T05:39:03.632Z,10.03
2022-10-11T05:40:03.534Z,10.06
2022-10-11T05:41:03.449Z,10.06
2022-10-11T05:42:05.506Z,10.04
2022-10-11T05:43:02.694Z,10.07
2022-10-11T05:44:03.170Z,10.09
2022-10-11T05:45:02.688Z,10.10
2022-10-11T05:46:03.759Z,10.12
2022-10-11T05:47:03.280Z,10.10
2022-10-11T05:48:02.956Z,10.12
2022-10-11T05:49:03.296Z,10.15
2022-10-11T05:50:02.820Z,10.18
2022-10-11T05:51:02.780Z,10.18
2022-10-11T05:52:02.869Z,10.18
2022-10-11T05:53:03.086Z,10.14
2022-10-11T05:54:03.266Z,10.12
2022-10-11T05:55:03.124Z,10.15
2022-10-11T05:56:03.798Z,10.14
2022-10-11T05:57:03.475Z,10.17
2022-10-11T05:58:03.407Z,10.18
2022-10-11T05:59:03.620Z,10.17
2022-10-11T06:00:03.289Z,10.14
2022-10-11T06:01:03.746Z,10.15
2022-10-11T06:02:03.152Z,10.17
2022-10-11T06:03:02.914Z,10.17
2022-10-11T06:04:03.193Z,10.21
2022-10-11T06:05:02.745Z,10.24
2022-10-11T06:06:03.383Z,10.22
2022-10-11T06:07:02.746Z,10.24
2022-10-11T06:08:02.382Z,10.21
2022-10-11T06:09:02.783Z,10.28
2022-10-11T06:10:02.447Z,10.28
2022-10-11T06:11:02.282Z,10.28
2022-10-11T06:12:02.615Z,10.30
2022-10-11T06:13:03.060Z,10.30
2022-10-11T06:14:02.721Z,10.30
2022-10-11T06:15:02.926Z,10.34
2022-10-11T06:16:03.696Z,10.33
2022-10-11T06:17:02.236Z,10.36
2022-10-11T06:18:02.482Z,10.40
2022-10-11T06:19:02.595Z,10.40
2022-10-11T06:20:02.762Z,10.42
2022-10-11T06:21:02.489Z,10.43
2022-10-11T06:22:02.479Z,10.44
2022-10-11T06:23:02.755Z,10.44
2022-10-11T06:24:02.655Z,10.46
2022-10-11T06:25:02.385Z,10.47
2022-10-11T06:26:03.041Z,10.43
2022-10-11T06:27:02.954Z,10.39
2022-10-11T06:28:03.128Z,10.32
2022-10-11T06:29:02.701Z,10.33
2022-10-11T06:30:03.108Z,10.33
2022-10-11T06:31:03.004Z,10.37
2022-10-11T06:32:02.922Z,10.42
2022-10-11T06:33:04.978Z,10.42
2022-10-11T06:34:02.979Z,10.44
2022-10-11T06:35:02.921Z,10.47
2022-10-11T06:36:03.645Z,10.46
2022-10-11T06:37:02.257Z,10.46
2022-10-11T06:38:02.454Z,10.46
2022-10-11T06:39:02.268Z,10.43
2022-10-11T06:40:02.498Z,10.44
2022-10-11T06:41:02.272Z,10.40
2022-10-11T06:42:02.988Z,10.42
2022-10-11T06:43:02.582Z,10.43
2022-10-11T06:44:02.932Z,10.52
2022-10-11T06:45:03.010Z,10.55
2022-10-11T06:46:02.701Z,10.55
2022-10-11T06:47:03.305Z,10.53
2022-10-11T06:48:03.195Z,10.55
2022-10-11T06:49:03.208Z,10.53
2022-10-11T06:50:03.083Z,10.52
2022-10-11T06:51:03.398Z,10.51
2022-10-11T06:52:02.440Z,10.46
2022-10-11T06:53:02.414Z,10.51
2022-10-11T06:54:02.626Z,10.51
2022-10-11T06:55:02.049Z,10.56
2022-10-11T06:56:02.689Z,10.56
2022-10-11T06:57:03.077Z,10.60
2022-10-11T06:58:03.257Z,10.63
2022-10-11T06:59:03.133Z,10.68
2022-10-11T07:00:03.166Z,10.65
2022-10-11T07:01:02.766Z,10.66
2022-10-11T07:02:02.025Z,10.66
2022-10-11T07:03:02.035Z,10.66
2022-10-11T07:04:02.638Z,10.73
2022-10-11T07:05:02.103Z,10.76
2022-10-11T07:06:02.795Z,10.80
2022-10-11T07:07:02.469Z,10.83
2022-10-11T07:08:02.504Z,10.84
2022-10-11T07:09:02.234Z,10.84
2022-10-11T07:10:02.743Z,10.86
2022-10-11T07:11:02.842Z,10.89
2022-10-11T07:12:03.175Z,10.84
2022-10-11T07:13:03.505Z,10.86
2022-10-11T07:14:03.256Z,10.84
2022-10-11T07:15:02.861Z,10.89
2022-10-11T07:16:03.757Z,10.94
2022-10-11T07:17:01.979Z,10.98
2022-10-11T07:18:02.405Z,10.99
2022-10-11T07:19:02.553Z,11.01
2022-10-11T07:20:02.541Z,11.02
2022-10-11T07:21:02.131Z,11.10
2022-10-11T07:22:02.522Z,11.13
2022-10-11T07:23:02.276Z,11.16
2022-10-11T07:24:02.559Z,11.19
2022-10-11T07:25:02.229Z,11.21
2022-10-11T07:26:02.483Z,11.21
2022-10-11T07:27:02.447Z,11.24
2022-10-11T07:28:02.296Z,11.27
2022-10-11T07:29:02.286Z,11.24
2022-10-11T07:30:02.613Z,11.27
2022-10-11T07:31:02.587Z,11.28
2022-10-11T07:32:02.873Z,11.29
2022-10-11T07:33:02.836Z,11.34
2022-10-11T07:34:02.395Z,11.34
2022-10-11T07:35:02.908Z,11.35
2022-10-11T07:36:03.277Z,11.36
2022-10-11T07:37:02.881Z,11.35
2022-10-11T07:38:02.761Z,11.29
2022-10-11T07:39:02.643Z,11.29
2022-10-11T07:40:02.768Z,11.28
2022-10-11T07:41:03.019Z,11.29
2022-10-11T07:42:03.060Z,11.29
2022-10-11T07:43:02.986Z,11.31
2022-10-11T07:44:02.917Z,11.32
2022-10-11T07:45:03.280Z,11.36
2022-10-11T07:46:03.276Z,11.34
2022-10-11T07:47:05.759Z,11.35
2022-10-11T07:48:03.269Z,11.36
2022-10-11T07:49:02.878Z,11.41
2022-10-11T07:50:02.977Z,11.44
2022-10-11T07:51:03.436Z,11.47
2022-10-11T07:52:02.806Z,11.46
2022-10-11T07:53:02.663Z,11.46
2022-10-11T07:54:07.036Z,11.49
2022-10-11T07:55:02.272Z,11.52
2022-10-11T07:56:03.117Z,11.52
2022-10-11T07:57:02.692Z,11.56
2022-10-11T07:58:02.786Z,11.57
2022-10-11T07:59:02.649Z,11.61
2022-10-11T08:00:02.373Z,11.62
2022-10-11T08:01:02.782Z,11.65
2022-10-11T08:02:03.017Z,11.68
2022-10-11T08:03:02.946Z,11.72
2022-10-11T08:04:02.931Z,11.74
2022-10-11T08:05:03.569Z,11.77
2022-10-11T08:06:03.910Z,11.82
2022-10-11T08:07:02.487Z,11.87
2022-10-11T08:08:02.512Z,11.93
2022-10-11T08:09:02.332Z,11.96
2022-10-11T08:10:02.732Z,11.99
2022-10-11T08:11:02.625Z,12.01
2022-10-11T08:12:02.903Z,12.05
2022-10-11T08:13:04.505Z,12.09
2022-10-11T08:14:02.518Z,12.04
2022-10-11T08:15:02.598Z,12.01
2022-10-11T08:16:03.213Z,11.90
2022-10-11T08:17:03.126Z,11.87
2022-10-11T08:18:02.819Z,11.93
2022-10-11T08:19:02.609Z,11.93
2022-10-11T08:20:02.581Z,11.87
2022-10-11T08:21:03.048Z,11.93
2022-10-11T08:22:03.180Z,11.94
2022-10-11T08:23:03.295Z,11.89
2022-10-11T08:24:02.989Z,11.93
2022-10-11T08:25:03.181Z,11.97
2022-10-11T08:26:03.813Z,12.01
2022-10-11T08:27:03.372Z,12.06
2022-10-11T08:28:03.315Z,12.05
2022-10-11T08:29:03.579Z,12.04
2022-10-11T08:30:03.222Z,12.06
2022-10-11T08:31:03.698Z,12.08
2022-10-11T08:32:02.308Z,12.09
2022-10-11T08:33:07.595Z,12.09
2022-10-11T08:34:02.445Z,12.12
2022-10-11T08:35:02.352Z,12.06
2022-10-11T08:36:02.831Z,12.09
2022-10-11T08:37:03.064Z,12.08
2022-10-11T08:38:02.705Z,12.02
2022-10-11T08:39:02.804Z,12.04
2022-10-11T08:40:02.822Z,12.11
2022-10-11T08:41:02.572Z,12.15
2022-10-11T08:42:03.424Z,12.19
2022-10-11T08:43:03.475Z,12.24
2022-10-11T08:44:02.967Z,12.30
2022-10-11T08:45:11.057Z,12.38
2022-10-11T08:46:03.668Z,12.39
2022-10-11T08:47:02.599Z,12.38
2022-10-11T08:48:02.881Z,12.39
2022-10-11T08:49:03.154Z,12.44
2022-10-11T08:50:03.108Z,12.45
2022-10-11T08:51:03.009Z,12.45
2022-10-11T08:52:03.086Z,12.45
2022-10-11T08:53:02.724Z,12.44
2022-10-11T08:54:07.398Z,12.39
2022-10-11T08:55:02.767Z,12.42
2022-10-11T08:56:03.038Z,12.44
2022-10-11T08:57:03.440Z,12.45
2022-10-11T08:58:02.996Z,12.48
2022-10-11T08:59:03.337Z,12.49
2022-10-11T09:00:03.505Z,12.46
2022-10-11T09:01:03.058Z,12.44
2022-10-11T09:02:03.802Z,12.39
2022-10-11T09:03:08.580Z,12.41
2022-10-11T09:04:03.489Z,12.39
2022-10-11T09:05:03.263Z,12.45
2022-10-11T09:06:04.240Z,12.52
2022-10-11T09:07:05.063Z,12.59
2022-10-11T09:08:03.266Z,12.56
2022-10-11T09:09:03.103Z,12.49
2022-10-11T09:10:02.828Z,12.45
2022-10-11T09:11:03.171Z,12.42
2022-10-11T09:12:03.285Z,12.42
2022-10-11T09:13:03.183Z,12.38
2022-10-11T09:14:03.531Z,12.34
2022-10-11T09:15:03.217Z,12.37
2022-10-11T09:16:03.777Z,12.33
2022-10-11T09:17:02.964Z,12.31
2022-10-11T09:18:02.533Z,12.30
2022-10-11T09:19:02.851Z,12.30
2022-10-11T09:20:02.888Z,12.29
2022-10-11T09:21:02.396Z,12.29
2022-10-11T09:22:03.487Z,12.29
2022-10-11T09:23:02.875Z,12.31
2022-10-11T09:24:03.391Z,12.39
2022-10-11T09:25:03.314Z,12.44
2022-10-11T09:26:03.262Z,12.45
2022-10-11T09:27:03.083Z,12.46
2022-10-11T09:28:04.093Z,12.56
2022-10-11T09:29:03.185Z,12.57
2022-10-11T09:30:03.640Z,12.60
2022-10-11T09:31:03.296Z,12.62
2022-10-11T09:32:03.853Z,12.69
2022-10-11T09:33:03.379Z,12.74
2022-10-11T09:34:03.322Z,12.77
2022-10-11T09:35:03.352Z,12.79
2022-10-11T09:36:03.907Z,12.85
2022-10-11T09:37:03.057Z,12.88
2022-10-11T09:38:03.041Z,12.92
2022-10-11T09:39:06.458Z,12.99
2022-10-11T09:40:02.559Z,13.03
2022-10-11T09:41:02.776Z,13.09
2022-10-11T09:42:02.454Z,13.15
2022-10-11T09:43:02.965Z,13.24
2022-10-11T09:44:02.477Z,13.29
2022-10-11T09:45:02.609Z,13.32
2022-10-11T09:46:02.845Z,13.32
2022-10-11T09:47:03.127Z,13.43
2022-10-11T09:48:03.461Z,13.46
2022-10-11T09:49:03.024Z,13.54
2022-10-11T09:50:03.068Z,13.56
2022-10-11T09:51:03.337Z,13.63
2022-10-11T09:52:02.627Z,13.71
2022-10-11T09:53:03.184Z,13.79
2022-10-11T09:54:02.825Z,13.79
2022-10-11T09:55:03.127Z,13.80
2022-10-11T09:56:03.011Z,13.84
2022-10-11T09:57:03.758Z,13.92
2022-10-11T09:58:03.248Z,13.96
2022-10-11T09:59:03.664Z,14.04
2022-10-11T10:00:03.660Z,14.12
2022-10-11T10:01:07.911Z,14.17
2022-10-11T10:02:02.941Z,14.21
2022-10-11T10:03:03.247Z,14.28
2022-10-11T10:04:02.813Z,14.21
2022-10-11T10:05:02.984Z,14.19
2022-10-11T10:06:03.522Z,14.16
2022-10-11T10:07:02.720Z,14.20
2022-10-11T10:08:04.790Z,14.19
2022-10-11T10:09:02.955Z,14.16
2022-10-11T10:10:02.425Z,14.13
2022-10-11T10:11:02.736Z,14.10
2022-10-11T10:12:03.046Z,14.09
2022-10-11T10:13:03.026Z,14.13
2022-10-11T10:14:03.261Z,14.13
2022-10-11T10:15:03.339Z,14.12
2022-10-11T10:16:03.398Z,14.10
2022-10-11T10:17:02.639Z,14.10
2022-10-11T10:18:02.897Z,14.14
2022-10-11T10:19:02.839Z,14.20
2022-10-11T10:20:02.800Z,14.25
2022-10-11T10:21:02.846Z,14.29
2022-10-11T10:22:03.511Z,14.32
2022-10-11T10:23:03.092Z,14.34
2022-10-11T10:24:03.391Z,14.31
2022-10-11T10:25:03.669Z,14.31
2022-10-11T10:26:03.862Z,14.42
2022-10-11T10:27:02.827Z,14.46
2022-10-11T10:28:02.670Z,14.53
2022-10-11T10:29:02.769Z,14.53
2022-10-11T10:30:02.886Z,14.52
2022-10-11T10:31:02.886Z,14.60
2022-10-11T10:32:18.961Z,14.65
2022-10-11T10:33:03.188Z,14.72
2022-10-11T10:34:03.556Z,14.80
2022-10-11T10:35:03.062Z,14.83
2022-10-11T10:36:03.367Z,14.75
2022-10-11T10:37:03.282Z,14.81
2022-10-11T10:38:03.082Z,14.87
2022-10-11T10:39:03.077Z,14.91
2022-10-11T10:40:03.032Z,14.90
2022-10-11T10:41:03.140Z,14.99
2022-10-11T10:42:03.377Z,15.08
2022-10-11T10:43:03.107Z,15.20
2022-10-11T10:44:03.150Z,15.24
2022-10-11T10:45:04.151Z,15.28
2022-10-11T10:46:04.081Z,15.35
2022-10-11T10:47:02.883Z,15.45
2022-10-11T10:48:02.697Z,15.51
2022-10-11T10:50:03.238Z,15.56
2022-10-11T10:51:07.079Z,15.56
2022-10-11T10:52:03.176Z,15.60
2022-10-11T10:53:03.390Z,15.64
2022-10-11T10:54:03.213Z,15.66
2022-10-11T10:55:02.858Z,15.67
2022-10-11T10:56:03.259Z,15.63
2022-10-11T10:57:03.284Z,15.61
2022-10-11T10:58:03.297Z,15.66
2022-10-11T10:59:03.106Z,15.68
2022-10-11T11:00:03.685Z,15.74
2022-10-11T11:01:03.194Z,15.79
2022-10-11T11:02:16.047Z,15.86
2022-10-11T11:03:03.031Z,15.92
2022-10-11T11:04:03.359Z,15.89
2022-10-11T11:05:03.651Z,15.97
2022-10-11T11:06:04.040Z,15.94
2022-10-11T11:07:03.550Z,16.03
2022-10-11T11:08:03.591Z,16.09
2022-10-11T11:09:03.185Z,16.15
2022-10-11T11:10:03.831Z,16.12
2022-10-11T11:11:03.778Z,16.16
2022-10-11T11:12:03.629Z,16.27
2022-10-11T11:13:03.478Z,16.40
2022-10-11T11:14:03.493Z,16.49
2022-10-11T11:15:03.790Z,16.52
2022-10-11T11:16:04.176Z,16.60
2022-10-11T11:17:02.894Z,16.71
2022-10-11T11:18:03.001Z,16.70
2022-10-11T11:19:02.889Z,16.73
2022-10-11T11:20:02.543Z,16.71
2022-10-11T11:21:02.932Z,16.73
2022-10-11T11:22:03.433Z,16.74
2022-10-11T11:23:03.623Z,16.78
2022-10-11T11:24:03.615Z,16.78
2022-10-11T11:25:03.472Z,16.71
2022-10-11T11:26:03.904Z,16.68
2022-10-11T11:27:03.573Z,16.74
2022-10-11T11:28:03.256Z,16.85
2022-10-11T11:29:03.227Z,16.93
2022-10-11T11:30:03.402Z,16.96
2022-10-11T11:31:03.743Z,16.92
2022-10-11T11:32:03.727Z,16.93
2022-10-11T11:33:03.672Z,16.95
2022-10-11T11:34:03.448Z,17.06
2022-10-11T11:35:03.985Z,17.23
2022-10-11T11:36:03.850Z,17.41
2022-10-11T11:37:03.143Z,17.54
2022-10-11T11:38:06.375Z,17.67
2022-10-11T11:39:02.700Z,17.73
2022-10-11T11:40:03.231Z,17.82
2022-10-11T11:41:03.470Z,17.95
2022-10-11T11:42:03.805Z,18.02
2022-10-11T11:43:03.957Z,17.99
2022-10-11T11:44:03.598Z,17.91
2022-10-11T11:45:03.646Z,17.94
2022-10-11T11:46:03.737Z,17.85
2022-10-11T11:47:02.946Z,17.81
2022-10-11T11:48:03.363Z,17.84
2022-10-11T11:49:03.519Z,17.85
2022-10-11T11:50:03.026Z,17.95
2022-10-11T11:51:03.215Z,18.00
2022-10-11T11:52:03.458Z,18.06
2022-10-11T11:53:03.069Z,18.18
2022-10-11T11:54:03.019Z,18.24
2022-10-11T11:55:04.266Z,18.36
2022-10-11T11:56:03.593Z,18.52
2022-10-11T11:57:03.710Z,18.65
2022-10-11T11:58:07.097Z,18.67
2022-10-11T11:59:03.799Z,18.64
2022-10-11T12:00:03.455Z,18.54
2022-10-11T12:01:03.793Z,18.57
2022-10-11T12:02:02.758Z,18.59
2022-10-11T12:03:02.783Z,18.74
2022-10-11T12:04:02.215Z,18.91
2022-10-11T12:05:02.405Z,18.99
2022-10-11T12:06:02.306Z,19.11
2022-10-11T12:07:15.938Z,19.20
2022-10-11T12:08:02.706Z,19.31
2022-10-11T12:09:02.591Z,19.40
2022-10-11T12:10:02.835Z,19.38
2022-10-11T12:11:02.644Z,19.46
2022-10-11T12:12:02.858Z,19.55
2022-10-11T12:13:02.586Z,19.66
2022-10-11T12:14:02.815Z,19.66
2022-10-11T12:15:02.607Z,19.66
2022-10-11T12:16:02.777Z,19.65
2022-10-11T12:17:03.374Z,19.72
2022-10-11T12:18:03.271Z,19.65
2022-10-11T12:19:02.924Z,19.60
2022-10-11T12:20:03.464Z,19.70
2022-10-11T12:21:03.541Z,19.80
2022-10-11T12:22:02.892Z,19.78
2022-10-11T12:23:02.795Z,19.80
2022-10-11T12:24:02.624Z,19.76
2022-10-11T12:25:02.341Z,19.83
2022-10-11T12:26:02.524Z,19.90
2022-10-11T12:27:03.013Z,19.93
2022-10-11T12:28:02.848Z,19.88
2022-10-11T12:29:02.834Z,19.80
2022-10-11T12:30:02.434Z,19.86
2022-10-11T12:31:03.010Z,19.88
2022-10-11T12:32:03.451Z,19.76
2022-10-11T12:33:03.510Z,19.80
2022-10-11T12:34:03.401Z,19.87
2022-10-11T12:35:03.234Z,19.84
2022-10-11T12:36:05.851Z,19.70
2022-10-11T12:37:06.655Z,19.55
2022-10-11T12:38:03.583Z,19.38
2022-10-11T12:39:03.448Z,19.21
2022-10-11T12:40:03.369Z,19.02
2022-10-11T12:41:03.450Z,18.91
2022-10-11T12:42:05.853Z,18.95
2022-10-11T12:43:02.962Z,19.14
2022-10-11T12:44:03.023Z,19.14
2022-10-11T12:45:02.819Z,19.21
2022-10-11T12:46:03.588Z,19.31
2022-10-11T12:47:03.465Z,19.42
2022-10-11T12:48:02.936Z,19.42
2022-10-11T12:49:03.323Z,19.43
2022-10-11T12:50:03.136Z,19.51
2022-10-11T12:51:03.364Z,19.53
2022-10-11T12:52:03.834Z,19.42
2022-10-11T12:53:03.818Z,19.43
2022-10-11T12:54:25.433Z,19.29
2022-10-11T12:55:03.829Z,19.33
2022-10-11T12:56:03.997Z,19.35
2022-10-11T12:57:06.354Z,19.50
2022-10-11T12:58:03.500Z,19.60
2022-10-11T12:59:03.741Z,19.72
2022-10-11T13:00:03.724Z,19.73
2022-10-11T13:01:03.421Z,19.83
2022-10-11T13:02:02.853Z,19.86